createdAt,value
2023-04-16T00:01:19.056Z,101702.16
2023-04-16T00:03:47.453Z,101702.16
2023-04-16T00:06:15.824Z,101710.22
2023-04-16T00:08:44.216Z,101717.44
2023-04-16T00:11:12.755Z,101706.66
2023-04-16T00:13:41.294Z,101712.94
2023-04-16T00:16:11.005Z,101710.38
2023-04-16T00:18:39.361Z,101706.81
2023-04-16T00:21:08.172Z,101706.09
2023-04-16T00:23:36.276Z,101704.34
2023-04-16T00:26:04.484Z,101702.50
2023-04-16T00:28:32.553Z,101701.63
2023-04-16T00:31:02.347Z,101704.34
2023-04-16T00:33:31.865Z,101702.59
2023-04-16T00:35:59.977Z,101703.47
2023-04-16T00:38:30.317Z,101707.97
2023-04-16T00:40:58.899Z,101711.47
2023-04-16T00:43:27.800Z,101702.50
2023-04-16T00:45:57.936Z,101708.63
2023-04-16T00:48:27.829Z,101717.50
2023-04-16T00:50:57.366Z,101713.78
2023-04-16T00:53:25.596Z,101706.59
2023-04-16T00:55:53.711Z,101712.84
2023-04-16T00:58:21.912Z,101710.91
2023-04-16T01:00:50.062Z,101709.19
2023-04-16T01:03:18.913Z,101708.22
2023-04-16T01:05:49.322Z,101710.91
2023-04-16T01:08:19.850Z,101716.16
2023-04-16T01:10:48.017Z,101721.41
2023-04-16T01:13:16.104Z,101720.38
2023-04-16T01:15:44.195Z,101716.75
2023-04-16T01:18:16.237Z,101726.53
2023-04-16T01:20:45.729Z,101726.53
2023-04-16T01:23:13.912Z,101727.41
2023-04-16T01:25:41.955Z,101723.00
2023-04-16T01:28:09.993Z,101724.78
2023-04-16T01:30:38.105Z,101732.03
2023-04-16T01:33:06.350Z,101735.66
2023-04-16T01:35:34.440Z,101734.69
2023-04-16T01:38:04.229Z,101740.78
2023-04-16T01:40:32.328Z,101730.97
2023-04-16T01:43:00.539Z,101729.94
2023-04-16T01:45:28.603Z,101730.91
2023-04-16T01:47:56.743Z,101737.97
2023-04-16T01:50:25.025Z,101734.25
2023-04-16T01:52:53.101Z,101738.75
2023-04-16T01:55:22.682Z,101746.84
2023-04-16T01:57:50.796Z,101735.03
2023-04-16T02:00:18.921Z,101743.00
2023-04-16T02:02:47.373Z,101735.72
2023-04-16T02:05:15.623Z,101739.38
2023-04-16T02:07:43.708Z,101744.88
2023-04-16T02:10:11.913Z,101735.13
2023-04-16T02:12:41.502Z,101735.13
2023-04-16T02:15:10.445Z,101734.16
2023-04-16T02:17:38.543Z,101740.50
2023-04-16T02:20:09.435Z,101736.88
2023-04-16T02:22:37.507Z,101737.88
2023-04-16T02:25:06.461Z,101735.25
2023-04-16T02:27:34.871Z,101739.78
2023-04-16T02:30:04.494Z,101746.09
2023-04-16T02:32:32.708Z,101744.38
2023-04-16T02:35:00.807Z,101737.16
2023-04-16T02:37:28.944Z,101743.28
2023-04-16T02:39:57.951Z,101748.59
2023-04-16T02:42:26.084Z,101748.59
2023-04-16T02:44:54.148Z,101745.88
2023-04-16T02:47:23.732Z,101738.69
2023-04-16T02:49:51.802Z,101745.78
2023-04-16T02:52:19.855Z,101741.28
2023-04-16T02:54:48.076Z,101746.59
2023-04-16T02:57:16.175Z,101744.63
2023-04-16T02:59:44.251Z,101752.63
2023-04-16T03:02:12.357Z,101748.97
2023-04-16T03:04:41.948Z,101749.84
2023-04-16T03:07:11.163Z,101752.63
2023-04-16T03:09:39.308Z,101750.94
2023-04-16T03:12:07.375Z,101757.28
2023-04-16T03:14:35.467Z,101758.22
2023-04-16T03:17:03.595Z,101759.09
2023-04-16T03:19:31.752Z,101757.22
2023-04-16T03:22:01.198Z,101758.81
2023-04-16T03:24:29.616Z,101757.78
2023-04-16T03:26:59.017Z,101765.84
2023-04-16T03:29:27.315Z,101754.09
2023-04-16T03:31:55.379Z,101759.34
2023-04-16T03:34:23.456Z,101761.09
2023-04-16T03:36:51.533Z,101762.84
2023-04-16T03:39:20.988Z,101763.72
2023-04-16T03:41:49.071Z,101761.91
2023-04-16T03:44:17.128Z,101765.38
2023-04-16T03:46:45.251Z,101761.75
2023-04-16T03:49:13.362Z,101766.19
2023-04-16T03:51:41.429Z,101766.06
2023-04-16T03:54:09.485Z,101774.97
2023-04-16T03:56:40.955Z,101778.34
2023-04-16T03:59:09.289Z,101771.81
2023-04-16T04:01:37.582Z,101783.31
2023-04-16T04:04:05.871Z,101780.38
2023-04-16T04:06:34.034Z,101776.03
2023-04-16T04:09:02.136Z,101778.66
2023-04-16T04:11:30.245Z,101777.63
2023-04-16T04:13:59.758Z,101781.41
2023-04-16T04:16:27.948Z,101778.78
2023-04-16T04:18:56.413Z,101778.72
2023-04-16T04:21:24.498Z,101786.66
2023-04-16T04:23:53.576Z,101783.97
2023-04-16T04:26:22.542Z,101782.13
2023-04-16T04:28:51.240Z,101789.34
2023-04-16T04:31:20.786Z,101786.97
2023-04-16T04:33:48.867Z,101792.50
2023-04-16T04:36:16.921Z,101792.50
2023-04-16T04:38:45.013Z,101786.22
2023-04-16T04:41:13.171Z,101792.50
2023-04-16T04:43:41.215Z,101790.59
2023-04-16T04:46:09.413Z,101794.97
2023-04-16T04:48:38.902Z,101794.09
2023-04-16T04:51:07.145Z,101790.44
2023-04-16T04:53:35.230Z,101786.81
2023-04-16T04:56:12.320Z,101786.66
2023-04-16T04:58:41.483Z,101786.66
2023-04-16T05:01:09.642Z,101785.72
2023-04-16T05:03:39.403Z,101788.41
2023-04-16T05:06:08.481Z,101800.03
2023-04-16T05:08:36.595Z,101795.50
2023-04-16T05:11:04.825Z,101802.78
2023-04-16T05:13:32.941Z,101808.09
2023-04-16T05:16:01.183Z,101803.59
2023-04-16T05:18:29.283Z,101814.28
2023-04-16T05:20:58.759Z,101810.50
2023-04-16T05:23:26.856Z,101814.00
2023-04-16T05:25:54.933Z,101819.28
2023-04-16T05:28:23.008Z,101814.53
2023-04-16T05:30:51.077Z,101814.53
2023-04-16T05:33:19.228Z,101816.19
2023-04-16T05:35:47.273Z,101818.81
2023-04-16T05:38:16.713Z,101823.41
2023-04-16T05:40:44.783Z,101833.47
2023-04-16T05:43:12.869Z,101828.97
2023-04-16T05:45:41.478Z,101838.00
2023-04-16T05:48:10.093Z,101830.97
2023-04-16T05:50:38.349Z,101838.00
2023-04-16T05:53:07.865Z,101838.63
2023-04-16T05:55:37.746Z,101835.06
2023-04-16T05:58:05.893Z,101845.84
2023-04-16T06:00:34.255Z,101846.81
2023-04-16T06:03:03.184Z,101836.81
2023-04-16T06:05:32.136Z,101844.63
2023-04-16T06:08:00.309Z,101841.56
2023-04-16T06:10:28.461Z,101844.00
2023-04-16T06:12:57.917Z,101844.56
2023-04-16T06:15:25.976Z,101847.94
2023-04-16T06:17:55.693Z,101836.19
2023-04-16T06:20:24.108Z,101846.91
2023-04-16T06:22:52.209Z,101855.63
2023-04-16T06:25:20.296Z,101851.88
2023-04-16T06:27:48.512Z,101852.81
2023-04-16T06:30:18.033Z,101857.25
2023-04-16T06:32:46.585Z,101859.97
2023-04-16T06:35:14.719Z,101861.84
2023-04-16T06:37:42.800Z,101869.94
2023-04-16T06:40:11.789Z,101877.38
2023-04-16T06:42:39.884Z,101883.66
2023-04-16T06:45:09.699Z,101886.56
2023-04-16T06:47:39.248Z,101875.91
2023-04-16T06:50:08.376Z,101879.44
2023-04-16T06:52:36.452Z,101880.00
2023-04-16T06:55:04.849Z,101888.91
2023-04-16T06:57:33.924Z,101880.72
2023-04-16T07:00:03.809Z,101884.38
2023-04-16T07:02:32.264Z,101882.44
2023-04-16T07:05:01.834Z,101890.13
2023-04-16T07:07:29.997Z,101886.22
2023-04-16T07:09:58.094Z,101888.50
2023-04-16T07:12:27.205Z,101885.91
2023-04-16T07:14:55.740Z,101891.22
2023-04-16T07:17:26.698Z,101895.66
2023-04-16T07:19:54.765Z,101903.13
2023-04-16T07:22:24.209Z,101898.97
2023-04-16T07:24:52.305Z,101901.88
2023-04-16T07:27:20.364Z,101904.56
2023-04-16T07:29:50.286Z,101901.16
2023-04-16T07:32:18.531Z,101904.81
2023-04-16T07:34:46.646Z,101910.13
2023-04-16T07:37:14.778Z,101906.56
2023-04-16T07:39:44.190Z,101912.97
2023-04-16T07:42:12.319Z,101907.59
2023-04-16T07:44:40.445Z,101910.47
2023-04-16T07:47:08.601Z,101916.91
2023-04-16T07:49:36.697Z,101917.69
2023-04-16T07:52:04.807Z,101924.78
2023-04-16T07:54:32.930Z,101921.16
2023-04-16T07:57:02.412Z,101918.38
2023-04-16T07:59:30.592Z,101923.03
2023-04-16T08:01:58.683Z,101923.03
2023-04-16T08:04:27.380Z,101923.78
2023-04-16T08:06:55.743Z,101918.22
2023-04-16T08:09:24.988Z,101919.97
2023-04-16T08:11:53.094Z,101930.91
2023-04-16T08:14:22.844Z,101931.94
2023-04-16T08:16:51.120Z,101934.66
2023-04-16T08:19:19.493Z,101938.22
2023-04-16T08:21:48.073Z,101954.25
2023-04-16T08:24:16.198Z,101948.00
2023-04-16T08:26:44.269Z,101948.94
2023-04-16T08:29:12.565Z,101951.63
2023-04-16T08:31:42.578Z,101960.53
2023-04-16T08:34:12.361Z,101961.34
2023-04-16T08:36:41.906Z,101964.91
2023-04-16T08:39:10.347Z,101965.69
2023-04-16T08:41:39.803Z,101971.91
2023-04-16T08:44:10.045Z,101967.38
2023-04-16T08:46:39.059Z,101976.34
2023-04-16T08:49:09.639Z,101974.47
2023-04-16T08:51:39.630Z,101972.59
2023-04-16T08:54:10.678Z,101980.00
2023-04-16T08:56:42.458Z,101980.38
2023-04-16T08:59:11.843Z,101978.69
2023-04-16T09:01:41.876Z,101978.75
2023-04-16T09:04:11.915Z,101986.03
2023-04-16T09:06:41.605Z,101983.34
2023-04-16T09:09:10.261Z,101985.91
2023-04-16T09:11:39.358Z,101979.56
2023-04-16T09:14:10.437Z,101985.97
2023-04-16T09:16:38.699Z,101987.66
2023-04-16T09:19:07.113Z,101990.38
2023-04-16T09:21:36.680Z,101997.84
2023-04-16T09:24:05.162Z,101998.81
2023-04-16T09:26:33.679Z,102000.56
2023-04-16T09:29:01.855Z,102003.97
2023-04-16T09:31:30.133Z,102006.47
2023-04-16T09:34:05.966Z,102000.06
2023-04-16T09:36:34.529Z,102014.50
2023-04-16T09:39:04.829Z,102001.66
2023-04-16T09:41:35.928Z,102003.22
2023-04-16T09:44:05.754Z,102009.34
2023-04-16T09:46:36.859Z,102014.41
2023-04-16T09:49:09.662Z,102016.16
2023-04-16T09:51:39.039Z,102023.50
2023-04-16T09:54:08.755Z,102020.69
2023-04-16T09:56:41.595Z,102023.00
2023-04-16T09:59:17.691Z,102027.34
2023-04-16T10:01:47.084Z,102030.03
2023-04-16T10:04:15.632Z,102025.50
2023-04-16T10:06:44.164Z,102023.53
2023-04-16T10:09:13.644Z,102036.00
2023-04-16T10:11:41.897Z,102037.03
2023-04-16T10:14:10.280Z,102038.16
2023-04-16T10:16:41.186Z,102040.06
2023-04-16T10:19:09.866Z,102040.94
2023-04-16T10:21:38.301Z,102041.75
2023-04-16T10:24:07.384Z,102052.53
2023-04-16T10:26:37.192Z,102047.09
2023-04-16T10:29:07.799Z,102049.66
2023-04-16T10:31:36.821Z,102046.81
2023-04-16T10:34:05.110Z,102051.41
2023-04-16T10:36:37.879Z,102054.81
2023-04-16T10:39:06.029Z,102066.34
2023-04-16T10:41:34.570Z,102056.56
2023-04-16T10:44:09.779Z,102060.38
2023-04-16T10:46:39.662Z,102072.28
2023-04-16T10:49:15.081Z,102067.22
2023-04-16T10:51:43.546Z,102068.44
2023-04-16T10:54:22.823Z,102078.72
2023-04-16T10:56:51.461Z,102074.47
2023-04-16T10:59:22.202Z,102071.97
2023-04-16T11:01:52.307Z,102075.00
2023-04-16T11:04:37.079Z,102077.06
2023-04-16T11:07:19.837Z,102077.94
2023-04-16T11:09:53.095Z,102071.50
2023-04-16T11:12:22.538Z,102073.88
2023-04-16T11:14:53.359Z,102072.72
2023-04-16T11:17:21.806Z,102078.03
2023-04-16T11:19:50.141Z,102078.03
2023-04-16T11:22:21.844Z,102075.63
2023-04-16T11:24:54.705Z,102080.97
2023-04-16T11:27:23.359Z,102077.22
2023-04-16T11:30:00.105Z,102079.88
2023-04-16T11:32:28.503Z,102085.16
2023-04-16T11:34:56.647Z,102086.59
2023-04-16T11:37:34.120Z,102088.91
2023-04-16T11:40:04.644Z,102085.78
2023-04-16T11:42:32.737Z,102091.03
2023-04-16T11:45:02.237Z,102094.38
2023-04-16T11:47:31.254Z,102097.00
2023-04-16T11:49:59.610Z,102098.13
2023-04-16T11:52:28.714Z,102102.63
2023-04-16T11:54:56.862Z,102108.84
2023-04-16T11:57:26.767Z,102100.59
2023-04-16T12:00:02.473Z,102100.41
2023-04-16T12:02:40.202Z,102093.03
2023-04-16T12:05:26.805Z,102098.41
2023-04-16T12:07:55.178Z,102092.00
2023-04-16T12:10:23.737Z,102099.47
2023-04-16T12:12:51.924Z,102091.53
2023-04-16T12:15:20.063Z,102097.22
2023-04-16T12:17:50.612Z,102098.47
2023-04-16T12:20:18.730Z,102100.94
2023-04-16T12:22:49.309Z,102102.31
2023-04-16T12:25:18.763Z,102106.78
2023-04-16T12:27:50.697Z,102109.31
2023-04-16T12:30:22.464Z,102103.03
2023-04-16T12:32:52.971Z,102104.63
2023-04-16T12:35:34.286Z,102095.56
2023-04-16T12:38:03.545Z,102103.59
2023-04-16T12:40:31.721Z,102109.81
2023-04-16T12:42:59.818Z,102099.00
2023-04-16T12:45:27.925Z,102096.13
2023-04-16T12:47:57.609Z,102096.69
2023-04-16T12:50:25.989Z,102099.19
2023-04-16T12:52:54.065Z,102095.44
2023-04-16T12:55:22.308Z,102095.72
2023-04-16T12:57:52.849Z,102103.13
2023-04-16T13:00:21.378Z,102101.31
2023-04-16T13:02:49.575Z,102096.41
2023-04-16T13:05:19.612Z,102100.78
2023-04-16T13:07:47.778Z,102099.56
2023-04-16T13:10:16.686Z,102097.53
2023-04-16T13:12:46.531Z,102093.84
2023-04-16T13:15:14.704Z,102094.47
2023-04-16T13:17:42.890Z,102087.97
2023-04-16T13:20:11.846Z,102097.69
2023-04-16T13:22:41.593Z,102108.25
2023-04-16T13:25:10.973Z,102104.28
2023-04-16T13:27:39.040Z,102105.34
2023-04-16T13:30:08.558Z,102102.94
2023-04-16T13:32:36.912Z,102112.09
2023-04-16T13:35:05.434Z,102106.69
2023-04-16T13:37:33.518Z,102106.59
2023-04-16T13:40:03.018Z,102102.38
2023-04-16T13:42:32.377Z,102102.84
2023-04-16T13:45:01.258Z,102102.75
2023-04-16T13:47:29.554Z,102107.22
2023-04-16T13:49:57.688Z,102109.75
2023-04-16T13:52:25.933Z,102105.19
2023-04-16T13:54:54.014Z,102104.22
2023-04-16T13:57:23.501Z,102107.72
2023-04-16T13:59:51.637Z,102112.56
2023-04-16T14:02:19.788Z,102108.19
2023-04-16T14:04:47.908Z,102115.19
2023-04-16T14:07:17.137Z,102110.63
2023-04-16T14:09:45.264Z,102107.88
2023-04-16T14:12:13.378Z,102105.00
2023-04-16T14:14:43.037Z,102106.34
2023-04-16T14:17:11.262Z,102111.25
2023-04-16T14:19:39.403Z,102121.09
2023-04-16T14:22:09.279Z,102110.56
2023-04-16T14:24:37.700Z,102114.22
2023-04-16T14:27:05.870Z,102109.84
2023-04-16T14:29:34.067Z,102116.41
2023-04-16T14:32:03.736Z,102109.25
2023-04-16T14:34:31.964Z,102103.63
2023-04-16T14:37:00.063Z,102109.75
2023-04-16T14:39:28.220Z,102107.75
2023-04-16T14:41:56.407Z,102111.22
2023-04-16T14:44:24.501Z,102114.38
2023-04-16T14:46:52.840Z,102110.88
2023-04-16T14:49:22.357Z,102112.09
2023-04-16T14:51:53.391Z,102104.94
2023-04-16T14:54:21.500Z,102103.97
2023-04-16T14:56:50.797Z,102104.19
2023-04-16T14:59:18.854Z,102102.88
2023-04-16T15:01:47.294Z,102103.38
2023-04-16T15:04:16.196Z,102109.88
2023-04-16T15:06:46.603Z,102096.44
2023-04-16T15:09:14.887Z,102108.19
2023-04-16T15:11:43.088Z,102109.16
2023-04-16T15:14:11.401Z,102113.53
2023-04-16T15:16:39.700Z,102111.63
2023-04-16T15:19:07.921Z,102107.84
2023-04-16T15:21:36.144Z,102118.81
2023-04-16T15:24:05.864Z,102116.09
2023-04-16T15:26:33.993Z,102123.19
2023-04-16T15:29:02.142Z,102121.81
2023-04-16T15:31:30.462Z,102114.28
2023-04-16T15:33:59.628Z,102117.88
2023-04-16T15:36:27.786Z,102119.63
2023-04-16T15:38:55.880Z,102124.75
2023-04-16T15:41:25.639Z,102126.31
2023-04-16T15:43:53.710Z,102129.31
2023-04-16T15:46:24.746Z,102134.97
2023-04-16T15:48:52.966Z,102138.88
2023-04-16T15:51:21.086Z,102141.00
2023-04-16T15:53:49.920Z,102137.59
2023-04-16T15:56:18.064Z,102141.97
2023-04-16T15:58:47.989Z,102135.59
2023-04-16T16:01:16.433Z,102141.72
2023-04-16T16:03:44.714Z,102136.19
2023-04-16T16:06:12.957Z,102135.84
2023-04-16T16:08:43.598Z,102149.88
2023-04-16T16:11:12.235Z,102148.78
2023-04-16T16:13:41.796Z,102149.81
2023-04-16T16:16:11.449Z,102153.38
2023-04-16T16:18:39.620Z,102157.06
2023-04-16T16:21:07.781Z,102164.50
2023-04-16T16:23:36.120Z,102157.66
2023-04-16T16:26:06.115Z,102155.75
2023-04-16T16:28:37.524Z,102161.78
2023-04-16T16:31:06.199Z,102157.50
2023-04-16T16:33:36.890Z,102149.38
2023-04-16T16:36:06.697Z,102152.88
2023-04-16T16:38:34.754Z,102154.50
2023-04-16T16:41:02.809Z,102156.47
2023-04-16T16:43:31.062Z,102162.41
2023-04-16T16:45:59.130Z,102160.81
2023-04-16T16:48:27.261Z,102153.91
2023-04-16T16:50:56.698Z,102156.00
2023-04-16T16:53:24.851Z,102157.03
2023-04-16T16:55:52.930Z,102157.13
2023-04-16T16:58:21.005Z,102153.75
2023-04-16T17:00:49.150Z,102164.56
2023-04-16T17:03:17.455Z,102159.38
2023-04-16T17:05:45.684Z,102164.34
2023-04-16T17:08:15.160Z,102151.94
2023-04-16T17:10:43.850Z,102155.59
2023-04-16T17:13:13.655Z,102160.28
2023-04-16T17:15:42.234Z,102159.31
2023-04-16T17:18:10.422Z,102162.09
2023-04-16T17:20:38.544Z,102164.84
2023-04-16T17:23:06.675Z,102158.72
2023-04-16T17:25:36.277Z,102160.84
2023-04-16T17:28:05.032Z,102167.22
2023-04-16T17:30:33.116Z,102168.22
2023-04-16T17:33:03.643Z,102161.06
2023-04-16T17:35:31.950Z,102169.09
2023-04-16T17:38:00.170Z,102171.00
2023-04-16T17:40:28.394Z,102166.84
2023-04-16T17:42:58.002Z,102172.53
2023-04-16T17:45:26.119Z,102176.34
2023-04-16T17:47:54.624Z,102175.53
2023-04-16T17:50:22.846Z,102168.44
2023-04-16T17:52:50.916Z,102174.13
2023-04-16T17:55:18.973Z,102177.03
2023-04-16T17:57:47.072Z,102177.31
2023-04-16T18:00:17.760Z,102180.28
2023-04-16T18:02:46.019Z,102184.13
2023-04-16T18:05:14.254Z,102189.75
2023-04-16T18:07:43.686Z,102191.63
2023-04-16T18:10:11.965Z,102188.94
2023-04-16T18:12:40.118Z,102196.28
2023-04-16T18:15:09.308Z,102195.69
2023-04-16T18:17:38.936Z,102199.41
2023-04-16T18:20:10.598Z,102202.91
2023-04-16T18:22:38.685Z,102212.53
2023-04-16T18:25:07.853Z,102215.31
2023-04-16T18:27:36.051Z,102223.34
2023-04-16T18:30:04.738Z,102216.13
2023-04-16T18:32:33.367Z,102223.34
2023-04-16T18:35:03.333Z,102229.53
2023-04-16T18:37:31.412Z,102223.28
2023-04-16T18:39:59.516Z,102233.13
2023-04-16T18:42:29.385Z,102235.78
2023-04-16T18:44:59.317Z,102241.19
2023-04-16T18:47:27.736Z,102242.13
2023-04-16T18:49:55.915Z,102239.44
2023-04-16T18:52:25.889Z,102239.44
2023-04-16T18:54:54.160Z,102253.91
2023-04-16T18:57:22.245Z,102253.97
2023-04-16T18:59:50.378Z,102250.53
2023-04-16T19:02:18.492Z,102259.66
2023-04-16T19:04:46.642Z,102258.88
2023-04-16T19:07:14.749Z,102258.06
2023-04-16T19:09:44.246Z,102259.16
2023-04-16T19:12:12.322Z,102261.13
2023-04-16T19:14:40.493Z,102267.56
2023-04-16T19:17:08.576Z,102268.56
2023-04-16T19:19:36.733Z,102267.81
2023-04-16T19:22:04.841Z,102266.13
2023-04-16T19:24:34.206Z,102261.72
2023-04-16T19:27:03.797Z,102262.72
2023-04-16T19:29:34.146Z,102266.44
2023-04-16T19:32:02.828Z,102272.84
2023-04-16T19:34:32.082Z,102273.78
2023-04-16T19:37:00.156Z,102282.81
2023-04-16T19:39:28.715Z,102284.75
2023-04-16T19:41:57.757Z,102279.41
2023-04-16T19:44:27.657Z,102283.06
2023-04-16T19:46:56.303Z,102281.38
2023-04-16T19:49:25.234Z,102285.00
2023-04-16T19:51:53.326Z,102284.19
2023-04-16T19:54:21.433Z,102282.44
2023-04-16T19:56:51.705Z,102286.06
2023-04-16T19:59:20.498Z,102290.63
2023-04-16T20:01:50.085Z,102288.00
2023-04-16T20:04:18.446Z,102281.78
2023-04-16T20:06:46.940Z,102286.31
2023-04-16T20:09:15.066Z,102282.78
2023-04-16T20:11:43.137Z,102276.59
2023-04-16T20:14:12.028Z,102283.88
2023-04-16T20:16:40.838Z,102279.44
2023-04-16T20:19:11.101Z,102282.13
2023-04-16T20:21:40.375Z,102284.03
2023-04-16T20:24:10.716Z,102285.84
2023-04-16T20:26:38.871Z,102284.91
2023-04-16T20:29:06.949Z,102285.84
2023-04-16T20:31:35.063Z,102290.34
2023-04-16T20:34:03.867Z,102286.72
2023-04-16T20:36:33.347Z,102287.66
2023-04-16T20:39:02.216Z,102288.47
2023-04-16T20:41:30.866Z,102287.59
2023-04-16T20:44:05.129Z,102292.94
2023-04-16T20:46:34.310Z,102288.44
2023-04-16T20:49:02.419Z,102291.13
2023-04-16T20:51:31.586Z,102294.72
2023-04-16T20:54:01.232Z,102288.47
2023-04-16T20:56:31.872Z,102286.72
2023-04-16T20:58:59.970Z,102289.47
2023-04-16T21:01:28.160Z,102288.66
2023-04-16T21:03:56.498Z,102289.66
2023-04-16T21:06:24.924Z,102296.06
2023-04-16T21:08:53.025Z,102288.94
2023-04-16T21:11:23.201Z,102302.50
2023-04-16T21:13:51.271Z,102301.59
2023-04-16T21:16:19.407Z,102307.06
2023-04-16T21:18:47.520Z,102303.56
2023-04-16T21:21:15.773Z,102299.09
2023-04-16T21:23:43.918Z,102304.50
2023-04-16T21:26:12.055Z,102299.97
2023-04-16T21:28:41.540Z,102301.78
2023-04-16T21:31:09.665Z,102309.88
2023-04-16T21:33:37.778Z,102300.97
2023-04-16T21:36:06.456Z,102307.31
2023-04-16T21:38:34.654Z,102308.25
2023-04-16T21:41:02.932Z,102310.94
2023-04-16T21:43:32.195Z,102305.59
2023-04-16T21:46:01.705Z,102311.84
2023-04-16T21:48:29.778Z,102310.97
2023-04-16T21:50:59.193Z,102308.28
2023-04-16T21:53:28.007Z,102310.09
2023-04-16T21:55:56.207Z,102312.84
2023-04-16T21:58:25.687Z,102319.25
2023-04-16T22:00:54.059Z,102313.84
2023-04-16T22:03:26.380Z,102314.78
2023-04-16T22:06:00.700Z,102302.25
2023-04-16T22:08:29.254Z,102301.38
2023-04-16T22:10:59.109Z,102316.63
2023-04-16T22:13:27.256Z,102306.91
2023-04-16T22:15:56.029Z,102310.53
2023-04-16T22:18:25.799Z,102313.22
2023-04-16T22:20:54.972Z,102317.78
2023-04-16T22:23:23.209Z,102309.75
2023-04-16T22:25:51.799Z,102322.34
2023-04-16T22:28:19.899Z,102316.16
2023-04-16T22:30:48.025Z,102316.16
2023-04-16T22:33:16.302Z,102313.56
2023-04-16T22:35:46.083Z,102319.03
2023-04-16T22:38:14.228Z,102322.69
2023-04-16T22:40:42.359Z,102321.88
2023-04-16T22:43:10.529Z,102313.84
2023-04-16T22:45:38.731Z,102319.28
2023-04-16T22:48:07.231Z,102315.78
2023-04-16T22:50:35.396Z,102314.09
2023-04-16T22:53:04.903Z,102315.94
2023-04-16T22:55:32.998Z,102314.16
2023-04-16T22:58:01.188Z,102316.09
2023-04-16T23:00:29.675Z,102314.47
2023-04-16T23:02:57.863Z,102311.00
2023-04-16T23:05:26.041Z,102305.69
2023-04-16T23:07:54.151Z,102313.78
2023-04-16T23:10:23.635Z,102307.56
2023-04-16T23:12:51.687Z,102309.44
2023-04-16T23:15:19.998Z,102310.44
2023-04-16T23:17:48.132Z,102311.38
2023-04-16T23:20:16.332Z,102309.63
2023-04-16T23:22:44.550Z,102317.78
2023-04-16T23:25:12.626Z,102315.16
2023-04-16T23:27:42.083Z,102316.09
2023-04-16T23:30:10.954Z,102312.56
2023-04-16T23:32:39.101Z,102314.44
2023-04-16T23:35:08.262Z,102314.50
2023-04-16T23:37:36.381Z,102313.63
2023-04-16T23:40:04.952Z,102315.50
2023-04-16T23:42:33.025Z,102313.75
2023-04-16T23:45:02.528Z,102312.00
2023-04-16T23:47:30.751Z,102307.53
2023-04-16T23:49:58.869Z,102308.53
2023-04-16T23:52:27.052Z,102308.59
2023-04-16T23:54:55.142Z,102310.41
2023-04-16T23:57:23.298Z,102311.34
2023-04-16T23:59:51.362Z,102310.47
